Albany, LA

2:05 PM CDT on May 25, 2015 (GMT -0500)
Gonzales | | Change Station
CLOSE
Current Station
Airport
Location: Gonzales,
Elevation: 13 ft
Nearby Weather Stations

Elev 13 ft 30.17 °N, 90.94 °W | Updated 10 minutes ago

Thunderstorm
Thunderstorm
81 °F
Feels Like 86 °F
N
7
Wind Variable Wind from ESE

Today
High -- | Low -- °F
--% Chance of Precip.
Yesterday
High -- | Low -- °F
Precip. -- in
6:02 AM 7:56 PM
Waxing Crescent, 51% visible
Pressure 30.02 in
Visibility 10.0 miles
Clouds Scattered Clouds 2100 ft
Scattered Clouds 4800 ft
Scattered Clouds 6500 ft
Heat Index 86 °F
Dew Point 74 °F
Humidity 80%
Rainfall 0.00 in
Snow Depth Not available.
UV 10 out of 12
Pollen .60 out of 12
Air Quality Not available.
Flu Activity Sporadic
METAR KL38 251855Z AUTO 12006KT 10SM VCTS SCT021 SCT048 SCT065 27/23 A3002 RMK AO2 LTG DSNT ALQS T02710234

More Conditions Fewer Conditions

Pressure 30.02 in
Visibility 10.0 miles
Clouds Scattered Clouds 2100 ft
Scattered Clouds 4800 ft
Scattered Clouds 6500 ft
Heat Index 86 °F
Dew Point 74 °F
Humidity 80%
Rainfall 0.00 in
Snow Depth Not available.
UV 10 out of 12
Pollen .60 out of 12
Air Quality Not available.
Flu Activity Sporadic
METAR KL38 251855Z AUTO 12006KT 10SM VCTS SCT021 SCT048 SCT065 27/23 A3002 RMK AO2 LTG DSNT ALQS T02710234

More Conditions Fewer Conditions

10-Day Weather Forecast

Almanac

Astronomy

May. 25, 2015 Rise Set
Actual Time
Civil Twilight
Nautical Twilight
Astronomical Twilight
Moon
Length of Visible Light
Length of Day
Tomorrow will be .
, % of the Moon is Illuminated

Today's Extremes

State Highs State Lows

Community

WunderPhotos

Upload Photos

1,824,080 photos uploaded!

WunderBlogs® & News

Nearby

Air Quality

  Air Quality AQ Index Pollutant
Not available.

Snow Depth

Station Depth Elevation

Earthquake Activity

City Distance Mag. Time & Date
Minimum magnitude displayed is 2.5.

Coastal Water Temperatures

Place Temperature

Stations

Nearby Weather Stations

Station Location Temp. Windchill Dew Point Humidity Wind Precip. Elev Updated Type